createdAt,value
2019-05-19T00:00:39.188Z,92130.77
2019-05-19T00:15:32.697Z,92133.84
2019-05-19T00:30:33.767Z,92140.83
2019-05-19T00:40:33.072Z,92140.33
2019-05-19T00:50:32.709Z,92144.13
2019-05-19T01:00:33.361Z,92133.30
2019-05-19T01:15:33.387Z,92133.63
2019-05-19T01:20:34.305Z,92134.06
2019-05-19T01:30:33.287Z,92131.34
2019-05-19T01:40:33.086Z,92136.20
2019-05-19T01:50:33.056Z,92134.36
2019-05-19T02:00:34.289Z,92136.27
2019-05-19T02:10:33.575Z,92131.12
2019-05-19T02:20:33.914Z,92128.48
2019-05-19T02:30:32.581Z,92124.72
2019-05-19T02:40:33.977Z,92126.22
2019-05-19T02:50:50.989Z,92119.50
2019-05-19T03:00:38.300Z,92121.42
2019-05-19T03:10:33.727Z,92132.52
2019-05-19T03:20:32.599Z,92131.45
2019-05-19T03:40:41.232Z,92135.50
2019-05-19T03:50:33.086Z,92145.02
2019-05-19T04:00:33.212Z,92147.44
2019-05-19T04:10:32.649Z,92150.31
2019-05-19T04:20:33.117Z,92153.80
2019-05-19T04:30:33.664Z,92147.22
2019-05-19T04:40:33.073Z,92148.91
2019-05-19T04:50:32.674Z,92147.27
2019-05-19T05:00:33.690Z,92145.09
2019-05-19T05:10:33.815Z,92139.86
2019-05-19T05:20:33.639Z,92139.77
2019-05-19T05:30:33.136Z,92142.50
2019-05-19T05:40:33.552Z,92131.06
2019-05-19T05:50:33.073Z,92123.52
2019-05-19T06:00:34.765Z,92114.09
2019-05-19T06:10:33.146Z,92116.17
2019-05-19T06:20:33.207Z,92127.50
2019-05-19T06:30:33.447Z,92107.94
2019-05-19T06:40:35.660Z,92106.11
2019-05-19T06:50:33.171Z,92093.27
2019-05-19T07:00:36.767Z,92092.92
2019-05-19T07:10:33.152Z,92095.69
2019-05-19T07:20:33.653Z,92083.95
2019-05-19T07:30:36.698Z,92089.68
2019-05-19T07:40:33.606Z,92085.34
2019-05-19T07:45:33.179Z,92088.73
2019-05-19T07:50:42.908Z,92095.28
2019-05-19T07:55:33.697Z,92089.24
2019-05-19T08:00:35.338Z,92089.45
2019-05-19T08:05:33.773Z,92086.84
2019-05-19T08:10:33.172Z,92085.84
2019-05-19T08:15:34.702Z,92109.41
2019-05-19T08:20:36.455Z,92111.07
2019-05-19T08:30:33.294Z,92102.63
2019-05-19T08:40:32.895Z,92097.70
2019-05-19T08:50:32.856Z,92089.51
2019-05-19T08:55:33.760Z,92079.55
2019-05-19T09:00:38.241Z,92077.41
2019-05-19T09:05:36.795Z,92066.91
2019-05-19T09:10:33.831Z,92067.13
2019-05-19T09:15:32.331Z,92052.82
2019-05-19T09:20:32.827Z,92060.20
2019-05-19T09:25:35.624Z,92060.22
2019-05-19T09:30:43.325Z,92057.08
2019-05-19T09:35:36.247Z,92052.88
2019-05-19T09:40:35.349Z,92061.27
2019-05-19T09:45:35.839Z,92050.86
2019-05-19T09:50:33.180Z,92061.70
2019-05-19T09:55:36.781Z,92053.11
2019-05-19T10:00:34.049Z,92046.29
2019-05-19T10:05:33.759Z,92044.05
2019-05-19T10:10:38.626Z,92040.36
2019-05-19T10:15:37.772Z,92035.35
2019-05-19T10:20:33.161Z,92034.94
2019-05-19T10:30:33.249Z,92034.84
2019-05-19T10:35:32.743Z,92031.16
2019-05-19T10:40:32.736Z,92030.14
2019-05-19T10:45:32.859Z,92029.76
2019-05-19T10:50:33.198Z,92033.66
2019-05-19T10:55:36.463Z,92025.30
2019-05-19T11:00:35.447Z,92024.22
2019-05-19T11:05:33.301Z,92032.09
2019-05-19T11:10:35.256Z,92018.20
2019-05-19T11:15:33.232Z,92023.00
2019-05-19T11:20:35.682Z,92016.94
2019-05-19T11:30:35.573Z,92015.80
2019-05-19T11:35:33.141Z,92018.63
2019-05-19T11:40:32.185Z,92007.77
2019-05-19T11:45:33.252Z,92015.73
2019-05-19T11:50:33.798Z,92010.23
2019-05-19T11:55:32.624Z,92008.25
2019-05-19T12:00:32.717Z,91995.80
2019-05-19T12:05:33.103Z,92001.55
2019-05-19T12:10:33.170Z,92001.16
2019-05-19T12:20:32.156Z,91991.11
2019-05-19T12:25:33.044Z,91986.64
2019-05-19T12:30:43.667Z,91979.05
2019-05-19T12:40:33.170Z,91986.52
2019-05-19T12:50:33.169Z,91986.91
2019-05-19T13:00:36.292Z,91975.81
2019-05-19T13:10:33.297Z,91968.36
2019-05-19T13:15:45.495Z,91967.79
2019-05-19T13:20:33.056Z,91976.27
2019-05-19T13:30:35.645Z,91976.66
2019-05-19T13:40:33.057Z,91973.49
2019-05-19T13:50:32.717Z,91973.17
2019-05-19T14:00:33.940Z,91983.23
2019-05-19T14:10:33.172Z,92014.81
2019-05-19T14:20:33.103Z,92038.27
2019-05-19T14:30:39.118Z,92058.88
2019-05-19T14:40:33.170Z,92053.13
2019-05-19T14:50:36.130Z,92055.14
2019-05-19T15:00:33.742Z,92029.67
2019-05-19T15:05:33.116Z,92002.61
2019-05-19T15:10:32.684Z,92012.48
2019-05-19T15:15:33.155Z,92019.88
2019-05-19T15:20:32.202Z,92012.96
2019-05-19T15:25:33.139Z,91999.19
2019-05-19T15:30:43.186Z,91997.22
2019-05-19T15:35:33.184Z,91991.98
2019-05-19T15:40:33.123Z,91978.17
2019-05-19T15:45:33.037Z,91985.58
2019-05-19T15:50:32.202Z,91975.87
2019-05-19T15:55:33.172Z,91983.13
2019-05-19T16:00:33.645Z,91989.92
2019-05-19T16:05:32.682Z,91996.18
2019-05-19T16:10:33.560Z,91994.42
2019-05-19T16:15:34.117Z,91982.61
2019-05-19T16:20:33.150Z,91984.59
2019-05-19T16:25:33.124Z,91993.68
2019-05-19T16:30:35.543Z,91985.11
2019-05-19T16:35:39.645Z,91994.95
2019-05-19T16:40:33.049Z,91985.16
2019-05-19T16:45:33.232Z,91994.72
2019-05-19T16:50:32.650Z,91989.76
2019-05-19T16:55:42.115Z,91979.37
2019-05-19T17:00:34.248Z,91987.45
2019-05-19T17:05:33.150Z,91987.33
2019-05-19T17:10:33.271Z,91985.92
2019-05-19T17:15:32.189Z,91987.53
2019-05-19T17:20:33.725Z,91992.11
2019-05-19T17:25:32.664Z,91998.30
2019-05-19T17:30:33.207Z,91998.55
2019-05-19T17:35:33.420Z,92002.09
2019-05-19T17:40:32.794Z,91997.81
2019-05-19T17:45:34.337Z,91998.88
2019-05-19T17:50:34.781Z,92007.38
2019-05-19T17:55:35.044Z,92022.75
2019-05-19T18:00:37.100Z,92010.27
2019-05-19T18:05:33.159Z,92020.19
2019-05-19T18:10:33.748Z,92036.36
2019-05-19T18:15:32.793Z,92057.61
2019-05-19T18:20:33.410Z,92059.82
2019-05-19T18:30:33.282Z,92061.16
2019-05-19T18:40:33.276Z,92058.37
2019-05-19T18:50:33.191Z,92057.82
2019-05-19T19:00:35.760Z,92059.75
2019-05-19T19:10:33.325Z,92065.88
2019-05-19T19:20:33.216Z,92070.53
2019-05-19T19:30:43.526Z,92078.17
2019-05-19T19:40:33.485Z,92088.39
2019-05-19T19:50:32.813Z,92087.84
2019-05-19T20:00:39.991Z,92096.44
2019-05-19T20:10:32.716Z,92102.65
2019-05-19T20:20:33.294Z,92098.63
2019-05-19T20:30:36.134Z,92087.22
2019-05-19T20:40:32.788Z,92098.38
2019-05-19T20:50:33.277Z,92107.16
2019-05-19T21:00:33.939Z,92106.09
2019-05-19T21:10:32.701Z,92108.72
2019-05-19T21:20:33.051Z,92107.75
2019-05-19T21:30:31.874Z,92104.87
2019-05-19T21:40:33.115Z,92102.20
2019-05-19T21:50:32.714Z,92106.14
2019-05-19T22:00:34.384Z,92106.17
2019-05-19T22:15:34.603Z,92107.83
2019-05-19T22:30:38.621Z,92102.09
2019-05-19T22:40:38.639Z,92093.12
2019-05-19T22:50:32.719Z,92095.09
2019-05-19T23:00:33.651Z,92089.56
2019-05-19T23:15:33.245Z,92089.37
2019-05-19T23:20:33.218Z,92082.33
2019-05-19T23:30:30.609Z,92089.91
2019-05-19T23:40:30.566Z,92079.48
2019-05-19T23:50:30.570Z,92068.91
